createdAt,value
2019-02-22T00:00:33.633Z,96677
2019-02-22T00:01:43.166Z,96676
2019-02-22T00:02:52.707Z,96676
2019-02-22T00:04:02.229Z,96681
2019-02-22T00:05:11.758Z,96675
2019-02-22T00:06:21.309Z,96681
2019-02-22T00:07:30.801Z,96675
2019-02-22T00:08:40.314Z,96678
2019-02-22T00:09:49.972Z,96676
2019-02-22T00:10:59.353Z,96672
2019-02-22T00:12:08.881Z,96673
2019-02-22T00:13:18.397Z,96675
2019-02-22T00:14:27.902Z,96677
2019-02-22T00:15:37.417Z,96675
2019-02-22T00:16:46.947Z,96676
2019-02-22T00:17:56.462Z,96678
2019-02-22T00:19:05.972Z,96674
2019-02-22T00:20:15.475Z,96676
2019-02-22T00:21:24.981Z,96675
2019-02-22T00:22:34.528Z,96669
2019-02-22T00:23:44.032Z,96672
2019-02-22T00:24:53.546Z,96669
2019-02-22T00:26:03.052Z,96670
2019-02-22T00:27:13.571Z,96673
2019-02-22T00:28:23.072Z,96669
2019-02-22T00:29:32.575Z,96666
2019-02-22T00:30:42.078Z,96668
2019-02-22T00:31:51.594Z,96663
2019-02-22T00:33:01.114Z,96667
2019-02-22T00:34:10.641Z,96662
2019-02-22T00:35:20.192Z,96667
2019-02-22T00:36:29.764Z,96673
2019-02-22T00:37:39.267Z,96676
2019-02-22T00:38:48.774Z,96678
2019-02-22T00:39:58.278Z,96674
2019-02-22T00:41:07.819Z,96677
2019-02-22T00:42:17.357Z,96671
2019-02-22T00:43:26.888Z,96667
2019-02-22T00:44:36.411Z,96670
2019-02-22T00:45:45.928Z,96661
2019-02-22T00:46:55.427Z,96667
2019-02-22T00:48:04.945Z,96671
2019-02-22T00:49:14.452Z,96675
2019-02-22T00:50:23.977Z,96673
2019-02-22T00:51:33.481Z,96677
2019-02-22T00:52:43.037Z,96671
2019-02-22T00:53:52.629Z,96668
2019-02-22T00:55:02.281Z,96674
2019-02-22T00:56:11.868Z,96663
2019-02-22T00:57:21.449Z,96658
2019-02-22T00:58:31.029Z,96659
2019-02-22T00:59:40.594Z,96653
2019-02-22T01:00:50.148Z,96654
2019-02-22T01:01:59.674Z,96653
2019-02-22T01:03:09.203Z,96644
2019-02-22T01:04:18.708Z,96649
2019-02-22T01:05:28.239Z,96651
2019-02-22T01:06:37.754Z,96649
2019-02-22T01:07:47.277Z,96650
2019-02-22T01:08:56.796Z,96648
2019-02-22T01:10:06.306Z,96648
2019-02-22T01:11:15.822Z,96658
2019-02-22T01:12:25.342Z,96660
2019-02-22T01:13:34.853Z,96650
2019-02-22T01:14:44.378Z,96658
2019-02-22T01:15:53.897Z,96659
2019-02-22T01:17:03.415Z,96660
2019-02-22T01:18:12.969Z,96655
2019-02-22T01:19:22.482Z,96645
2019-02-22T01:20:32.009Z,96647
2019-02-22T01:21:41.573Z,96648
2019-02-22T01:22:51.070Z,96645
2019-02-22T01:24:00.613Z,96644
2019-02-22T01:25:10.116Z,96642
2019-02-22T01:26:19.661Z,96646
2019-02-22T01:27:29.190Z,96643
2019-02-22T01:28:38.741Z,96637
2019-02-22T01:29:48.271Z,96642
2019-02-22T01:30:57.844Z,96644
2019-02-22T01:32:07.361Z,96640
2019-02-22T01:33:16.887Z,96644
2019-02-22T01:34:26.411Z,96635
2019-02-22T01:35:35.926Z,96636
2019-02-22T01:36:45.443Z,96638
2019-02-22T01:37:54.977Z,96630
2019-02-22T01:39:04.482Z,96634
2019-02-22T01:40:14.000Z,96634
2019-02-22T01:41:23.526Z,96631
2019-02-22T01:42:33.049Z,96635
2019-02-22T01:43:42.596Z,96639
2019-02-22T01:44:52.103Z,96636
2019-02-22T01:46:01.612Z,96634
2019-02-22T01:47:11.112Z,96640
2019-02-22T01:48:20.643Z,96637
2019-02-22T01:49:30.149Z,96634
2019-02-22T01:50:40.658Z,96641
2019-02-22T01:51:50.163Z,96635
2019-02-22T01:52:59.698Z,96640
2019-02-22T01:54:09.222Z,96638
2019-02-22T01:55:18.724Z,96643
2019-02-22T01:56:28.242Z,96639
2019-02-22T01:57:37.753Z,96635
2019-02-22T01:58:48.870Z,96635
2019-02-22T01:59:56.831Z,96634
2019-02-22T02:01:06.357Z,96637
2019-02-22T02:02:15.892Z,96633
2019-02-22T02:03:25.418Z,96630
2019-02-22T02:04:34.949Z,96634
2019-02-22T02:05:44.485Z,96640
2019-02-22T02:06:53.993Z,96636
2019-02-22T02:08:03.528Z,96639
2019-02-22T02:09:13.030Z,96635
2019-02-22T02:10:22.545Z,96638
2019-02-22T02:11:32.065Z,96628
2019-02-22T02:12:41.577Z,96633
2019-02-22T02:13:51.100Z,96620
2019-02-22T02:15:00.611Z,96623
2019-02-22T02:16:10.124Z,96615
2019-02-22T02:17:19.634Z,96625
2019-02-22T02:18:29.171Z,96629
2019-02-22T02:19:38.698Z,96636
2019-02-22T02:20:48.252Z,96635
2019-02-22T02:21:57.781Z,96637
2019-02-22T02:23:07.305Z,96632
2019-02-22T02:24:16.818Z,96635
2019-02-22T02:25:26.328Z,96636
2019-02-22T02:26:35.836Z,96641
2019-02-22T02:27:46.350Z,96640
2019-02-22T02:28:55.904Z,96637
2019-02-22T02:30:05.424Z,96639
2019-02-22T02:31:14.932Z,96647
2019-02-22T02:32:24.440Z,96640
2019-02-22T02:33:33.962Z,96641
2019-02-22T02:34:43.465Z,96641
2019-02-22T02:35:52.990Z,96639
2019-02-22T02:37:02.497Z,96642
2019-02-22T02:38:12.032Z,96644
2019-02-22T02:39:21.546Z,96642
2019-02-22T02:40:31.055Z,96639
2019-02-22T02:41:40.571Z,96642
2019-02-22T02:42:50.087Z,96648
2019-02-22T02:43:59.604Z,96642
2019-02-22T02:45:09.129Z,96647
2019-02-22T02:46:18.648Z,96644
2019-02-22T02:47:28.174Z,96641
2019-02-22T02:48:37.716Z,96645
2019-02-22T02:49:47.238Z,96639
2019-02-22T02:50:56.788Z,96641
2019-02-22T02:52:06.287Z,96643
2019-02-22T02:53:15.820Z,96639
2019-02-22T02:54:25.354Z,96641
2019-02-22T02:55:34.895Z,96641
2019-02-22T02:56:46.222Z,96643
2019-02-22T02:57:53.943Z,96644
2019-02-22T02:59:03.479Z,96644
2019-02-22T03:00:12.993Z,96649
2019-02-22T03:01:22.527Z,96650
2019-02-22T03:02:32.065Z,96645
2019-02-22T03:03:41.599Z,96647
2019-02-22T03:04:51.113Z,96650
2019-02-22T03:06:00.620Z,96651
2019-02-22T03:07:10.145Z,96655
2019-02-22T03:08:19.667Z,96659
2019-02-22T03:09:29.176Z,96651
2019-02-22T03:10:38.694Z,96653
2019-02-22T03:11:48.221Z,96649
2019-02-22T03:12:58.732Z,96657
2019-02-22T03:14:08.244Z,96658
2019-02-22T03:15:17.731Z,96659
2019-02-22T03:16:28.245Z,96660
2019-02-22T03:17:37.756Z,96668
2019-02-22T03:18:47.287Z,96662
2019-02-22T03:19:56.808Z,96670
2019-02-22T03:21:06.345Z,96668
2019-02-22T03:22:15.875Z,96668
2019-02-22T03:23:25.404Z,96673
2019-02-22T03:24:34.915Z,96674
2019-02-22T03:25:44.423Z,96686
2019-02-22T03:26:54.954Z,96689
2019-02-22T03:28:04.474Z,96688
2019-02-22T03:29:14.002Z,96680
2019-02-22T03:30:23.535Z,96682
2019-02-22T03:31:33.050Z,96684
2019-02-22T03:32:42.557Z,96679
2019-02-22T03:33:52.127Z,96682
2019-02-22T03:35:01.620Z,96679
2019-02-22T03:36:11.142Z,96685
2019-02-22T03:37:20.670Z,96681
2019-02-22T03:38:30.173Z,96690
2019-02-22T03:39:39.709Z,96694
2019-02-22T03:40:49.246Z,96689
2019-02-22T03:41:58.765Z,96691
2019-02-22T03:43:08.301Z,96688
2019-02-22T03:44:17.834Z,96682
2019-02-22T03:45:27.343Z,96685
2019-02-22T03:46:36.848Z,96693
2019-02-22T03:47:46.362Z,96686
2019-02-22T03:48:55.875Z,96693
2019-02-22T03:50:05.402Z,96693
2019-02-22T03:51:14.958Z,96689
2019-02-22T03:52:24.479Z,96690
2019-02-22T03:53:33.985Z,96692
2019-02-22T03:54:43.510Z,96697
2019-02-22T03:55:53.031Z,96697
2019-02-22T03:57:02.570Z,96693
2019-02-22T03:58:12.076Z,96694
2019-02-22T03:59:21.631Z,96693
2019-02-22T04:00:32.151Z,96695
2019-02-22T04:01:41.661Z,96694
2019-02-22T04:02:51.287Z,96699
2019-02-22T04:06:22.963Z,96695
2019-02-22T04:07:32.489Z,96700
2019-02-22T04:08:42.009Z,96705
2019-02-22T04:09:51.603Z,96699
2019-02-22T04:11:01.113Z,96699
2019-02-22T04:12:10.720Z,96693
2019-02-22T04:13:20.237Z,96692
2019-02-22T04:14:29.762Z,96683
2019-02-22T04:15:39.290Z,96684
2019-02-22T04:16:48.812Z,96679
2019-02-22T04:17:58.319Z,96679
2019-02-22T04:19:07.849Z,96685
2019-02-22T04:20:17.361Z,96682
2019-02-22T04:21:26.874Z,96673
2019-02-22T04:22:36.375Z,96678
2019-02-22T04:23:46.880Z,96675
2019-02-22T04:24:56.417Z,96671
2019-02-22T04:26:05.930Z,96680
2019-02-22T04:27:15.446Z,96677
2019-02-22T04:28:24.955Z,96696
2019-02-22T04:29:34.482Z,96684
2019-02-22T04:30:43.994Z,96677
2019-02-22T04:31:53.509Z,96673
2019-02-22T04:33:03.009Z,96680
2019-02-22T04:34:12.542Z,96679
2019-02-22T04:35:22.054Z,96673
2019-02-22T04:36:31.546Z,96678
2019-02-22T04:37:41.052Z,96682
2019-02-22T04:38:50.569Z,96680
2019-02-22T04:40:00.155Z,96679
2019-02-22T04:41:09.604Z,96685
2019-02-22T04:42:19.122Z,96684
2019-02-22T04:43:28.632Z,96687
2019-02-22T04:44:38.162Z,96682
2019-02-22T04:45:47.671Z,96687
2019-02-22T04:46:57.179Z,96682
2019-02-22T04:48:06.685Z,96692
2019-02-22T04:49:16.228Z,96687
2019-02-22T04:50:25.739Z,96685
2019-02-22T04:51:35.248Z,96689
2019-02-22T04:52:44.765Z,96690
2019-02-22T04:53:54.272Z,96691
2019-02-22T04:55:03.803Z,96688
2019-02-22T04:56:13.317Z,96690
2019-02-22T04:57:22.824Z,96689
2019-02-22T04:58:32.340Z,96689
2019-02-22T04:59:41.873Z,96689
2019-02-22T05:00:51.393Z,96688
2019-02-22T05:02:00.916Z,96689
2019-02-22T05:03:10.430Z,96697
2019-02-22T05:04:19.986Z,96693
2019-02-22T05:05:29.498Z,96693
2019-02-22T05:06:39.004Z,96693
2019-02-22T05:07:48.510Z,96700
2019-02-22T05:08:58.031Z,96693
2019-02-22T05:10:07.555Z,96688
2019-02-22T05:11:17.066Z,96693
2019-02-22T05:12:26.565Z,96693
2019-02-22T05:13:36.076Z,96688
2019-02-22T05:14:45.604Z,96696
2019-02-22T05:15:55.104Z,96696
2019-02-22T05:17:04.611Z,96692
2019-02-22T05:18:14.120Z,96697
2019-02-22T05:19:23.653Z,96692
2019-02-22T05:20:33.177Z,96692
2019-02-22T05:21:42.750Z,96696
2019-02-22T05:23:03.230Z,96689
2019-02-22T05:24:02.678Z,96695
2019-02-22T05:25:12.207Z,96694
2019-02-22T05:26:21.713Z,96694
2019-02-22T05:27:31.215Z,96698
2019-02-22T05:28:40.721Z,96701
2019-02-22T05:29:50.355Z,96698
2019-02-22T05:30:59.870Z,96702
2019-02-22T05:32:09.377Z,96695
2019-02-22T05:33:18.877Z,96696
2019-02-22T05:34:28.388Z,96694
2019-02-22T05:35:37.909Z,96699
2019-02-22T05:36:47.419Z,96696
2019-02-22T05:37:56.913Z,96694
2019-02-22T05:39:17.985Z,96698
2019-02-22T05:40:16.981Z,96692
2019-02-22T05:41:26.478Z,96692
2019-02-22T05:42:36.172Z,96693
2019-02-22T05:43:45.600Z,96694
2019-02-22T05:44:55.162Z,96693
2019-02-22T05:46:04.662Z,96701
2019-02-22T05:47:14.170Z,96699
2019-02-22T05:48:25.444Z,96700
2019-02-22T05:49:33.203Z,96702
2019-02-22T05:50:42.736Z,96699
2019-02-22T05:51:52.251Z,96702
2019-02-22T05:53:01.807Z,96698
2019-02-22T05:54:11.355Z,96705
2019-02-22T05:55:20.872Z,96704
2019-02-22T05:56:30.381Z,96700
2019-02-22T05:57:39.906Z,96699
2019-02-22T05:58:49.433Z,96701
2019-02-22T05:59:58.969Z,96706
2019-02-22T06:01:08.473Z,96704
2019-02-22T06:02:17.989Z,96700
2019-02-22T06:03:27.566Z,96704
2019-02-22T06:04:37.035Z,96706
2019-02-22T06:05:46.562Z,96709
2019-02-22T06:06:56.078Z,96713
2019-02-22T06:08:08.105Z,96709
2019-02-22T06:09:15.118Z,96710
2019-02-22T06:10:24.635Z,96712
2019-02-22T06:11:34.193Z,96717
2019-02-22T06:12:43.712Z,96716
2019-02-22T06:13:53.214Z,96711
2019-02-22T06:15:02.721Z,96719
2019-02-22T06:16:12.256Z,96716
2019-02-22T06:17:21.804Z,96720
2019-02-22T06:18:31.309Z,96722
2019-02-22T06:19:40.815Z,96719
2019-02-22T06:20:50.368Z,96726
2019-02-22T06:21:59.895Z,96725
2019-02-22T06:23:09.418Z,96730
2019-02-22T06:24:18.933Z,96728
2019-02-22T06:25:28.471Z,96726
2019-02-22T06:26:37.985Z,96734
2019-02-22T06:27:47.497Z,96734
2019-02-22T06:28:57.001Z,96741
2019-02-22T06:30:06.506Z,96731
2019-02-22T06:31:16.028Z,96732
2019-02-22T06:32:25.544Z,96732
2019-02-22T06:33:35.060Z,96736
2019-02-22T06:34:44.560Z,96733
2019-02-22T06:35:54.086Z,96744
2019-02-22T06:37:03.601Z,96744
2019-02-22T06:38:13.111Z,96744
2019-02-22T06:39:22.705Z,96745
2019-02-22T06:40:32.184Z,96741
2019-02-22T06:41:41.685Z,96747
2019-02-22T06:42:51.192Z,96749
2019-02-22T06:44:00.739Z,96749
2019-02-22T06:45:10.268Z,96752
2019-02-22T06:46:19.833Z,96754
2019-02-22T06:47:29.338Z,96756
2019-02-22T06:48:38.842Z,96754
2019-02-22T06:49:48.352Z,96759
2019-02-22T06:50:57.868Z,96760
2019-02-22T06:52:07.390Z,96758
2019-02-22T06:53:16.885Z,96758
2019-02-22T06:54:26.392Z,96766
2019-02-22T06:55:35.910Z,96774
2019-02-22T06:56:45.519Z,96768
2019-02-22T06:57:55.050Z,96772
2019-02-22T06:59:04.551Z,96774
2019-02-22T07:00:14.066Z,96777
2019-02-22T07:01:23.636Z,96777
2019-02-22T07:02:33.134Z,96768
2019-02-22T07:03:42.659Z,96771
2019-02-22T07:04:52.164Z,96773
2019-02-22T07:06:01.668Z,96773
2019-02-22T07:07:11.168Z,96772
2019-02-22T07:08:20.696Z,96776
2019-02-22T07:09:30.212Z,96782
2019-02-22T07:10:39.727Z,96780
2019-02-22T07:11:49.271Z,96780
2019-02-22T07:12:58.775Z,96780
2019-02-22T07:14:08.281Z,96782
2019-02-22T07:15:17.799Z,96783
2019-02-22T07:16:27.325Z,96781
2019-02-22T07:17:36.826Z,96786
2019-02-22T07:18:49.752Z,96784
2019-02-22T07:19:56.854Z,96784
2019-02-22T07:21:06.444Z,96791
2019-02-22T07:22:15.872Z,96786
2019-02-22T07:23:26.364Z,96790
2019-02-22T07:24:35.893Z,96792
2019-02-22T07:25:45.395Z,96797
2019-02-22T07:26:54.912Z,96800
2019-02-22T07:28:05.505Z,96800
2019-02-22T07:29:14.951Z,96807
2019-02-22T07:30:25.452Z,96810
2019-02-22T07:31:35.963Z,96813
2019-02-22T07:32:45.538Z,96811
2019-02-22T07:33:55.033Z,96815
2019-02-22T07:35:04.570Z,96813
2019-02-22T07:36:14.137Z,96814
2019-02-22T07:37:23.628Z,96819
2019-02-22T07:38:33.144Z,96816
2019-02-22T07:39:42.643Z,96815
2019-02-22T07:40:52.164Z,96823
2019-02-22T07:42:01.688Z,96824
2019-02-22T07:43:11.194Z,96827
2019-02-22T07:44:20.698Z,96827
2019-02-22T07:45:30.207Z,96824
2019-02-22T07:46:39.720Z,96826
2019-02-22T07:47:49.230Z,96830
2019-02-22T07:48:58.751Z,96830
2019-02-22T07:50:08.258Z,96835
2019-02-22T07:51:17.772Z,96833
2019-02-22T07:52:27.299Z,96836
2019-02-22T07:53:36.806Z,96837
2019-02-22T07:54:46.320Z,96839
2019-02-22T07:55:55.840Z,96837
2019-02-22T07:57:05.384Z,96841
2019-02-22T07:58:14.894Z,96843
2019-02-22T07:59:24.402Z,96840
2019-02-22T08:00:33.910Z,96836
2019-02-22T08:01:47.062Z,96837
2019-02-22T08:02:52.928Z,96835
2019-02-22T08:04:02.440Z,96835
2019-02-22T08:05:11.947Z,96840
2019-02-22T08:06:21.465Z,96836
2019-02-22T08:07:30.997Z,96839
2019-02-22T08:08:40.509Z,96841
2019-02-22T08:09:51.020Z,96837
2019-02-22T08:11:00.551Z,96844
2019-02-22T08:12:10.079Z,96836
2019-02-22T08:13:20.173Z,96844
2019-02-22T08:14:29.139Z,96841
2019-02-22T08:15:38.672Z,96839
2019-02-22T08:16:48.211Z,96845
2019-02-22T08:17:57.746Z,96847
2019-02-22T08:19:07.254Z,96856
2019-02-22T08:20:16.773Z,96853
2019-02-22T08:21:26.297Z,96857
2019-02-22T08:22:35.833Z,96861
2019-02-22T08:23:45.352Z,96860
2019-02-22T08:24:55.881Z,96857
2019-02-22T08:26:05.407Z,96861
2019-02-22T08:27:14.939Z,96866
2019-02-22T08:28:24.455Z,96869
2019-02-22T08:29:33.972Z,96868
2019-02-22T08:30:43.486Z,96872
2019-02-22T08:31:53.023Z,96872
2019-02-22T08:33:02.526Z,96876
2019-02-22T08:34:12.058Z,96875
2019-02-22T08:35:21.567Z,96875
2019-02-22T08:36:31.074Z,96880
2019-02-22T08:37:40.601Z,96882
2019-02-22T08:38:50.107Z,96878
2019-02-22T08:40:02.126Z,96881
2019-02-22T08:41:09.111Z,96887
2019-02-22T08:42:18.637Z,96885
2019-02-22T08:43:31.328Z,96890
2019-02-22T08:44:37.647Z,96886
2019-02-22T08:45:47.161Z,96891
2019-02-22T08:46:56.682Z,96888
2019-02-22T08:48:06.217Z,96894
2019-02-22T08:49:15.718Z,96891
2019-02-22T08:50:25.222Z,96894
2019-02-22T08:51:34.730Z,96890
2019-02-22T08:52:44.247Z,96895
2019-02-22T08:53:53.754Z,96899
2019-02-22T08:55:03.260Z,96899
2019-02-22T08:56:12.762Z,96899
2019-02-22T08:57:22.292Z,96904
2019-02-22T08:58:31.805Z,96905
2019-02-22T08:59:41.311Z,96899
2019-02-22T09:00:50.839Z,96897
2019-02-22T09:02:00.344Z,96891
2019-02-22T09:03:09.892Z,96889
2019-02-22T09:04:19.389Z,96892
2019-02-22T09:05:28.895Z,96892
2019-02-22T09:06:38.398Z,96896
2019-02-22T09:07:48.912Z,96896
2019-02-22T09:08:58.420Z,96899
2019-02-22T09:10:07.934Z,96903
2019-02-22T09:11:17.472Z,96911
2019-02-22T09:12:26.991Z,96913
2019-02-22T09:13:43.329Z,96926
2019-02-22T09:14:46.973Z,96923
2019-02-22T09:15:56.482Z,96924
2019-02-22T09:17:06.001Z,96922
2019-02-22T09:18:15.511Z,96923
2019-02-22T09:19:25.020Z,96923
2019-02-22T09:20:34.523Z,96928
2019-02-22T09:21:44.025Z,96925
2019-02-22T09:22:53.555Z,96932
2019-02-22T09:24:03.126Z,96930
2019-02-22T09:25:12.561Z,96933
2019-02-22T09:26:22.073Z,96930
2019-02-22T09:27:31.610Z,96932
2019-02-22T09:28:41.114Z,96933
2019-02-22T09:29:58.302Z,96931
2019-02-22T09:31:01.089Z,96935
2019-02-22T09:32:10.606Z,96933
2019-02-22T09:33:20.129Z,96944
2019-02-22T09:34:29.645Z,96941
2019-02-22T09:35:39.227Z,96943
2019-02-22T09:36:48.651Z,96949
2019-02-22T09:37:58.175Z,96942
2019-02-22T09:39:07.676Z,96943
2019-02-22T09:40:17.184Z,96940
2019-02-22T09:41:26.703Z,96938
2019-02-22T09:42:36.209Z,96940
2019-02-22T09:43:54.506Z,96938
2019-02-22T09:44:56.203Z,96936
2019-02-22T09:46:05.711Z,96941
2019-02-22T09:47:15.292Z,96948
2019-02-22T09:48:24.744Z,96943
2019-02-22T09:49:34.249Z,96946
2019-02-22T09:50:43.765Z,96951
2019-02-22T09:51:53.274Z,96949
2019-02-22T09:53:02.791Z,96946
2019-02-22T09:54:12.322Z,96941
2019-02-22T09:55:21.835Z,96942
2019-02-22T09:56:31.350Z,96941
2019-02-22T09:57:40.861Z,96946
2019-02-22T09:58:50.386Z,96943
2019-02-22T09:59:59.891Z,96948
2019-02-22T10:01:09.397Z,96943
2019-02-22T10:02:18.904Z,96941
2019-02-22T10:03:28.432Z,96938
2019-02-22T10:04:37.940Z,96937
2019-02-22T10:05:48.437Z,96938
2019-02-22T10:06:57.937Z,96942
2019-02-22T10:08:07.470Z,96943
2019-02-22T10:09:16.979Z,96938
2019-02-22T10:10:26.497Z,96936
2019-02-22T10:11:36.012Z,96940
2019-02-22T10:12:45.523Z,96938
2019-02-22T10:14:06.009Z,96936
2019-02-22T10:15:05.554Z,96942
2019-02-22T10:16:15.062Z,96943
2019-02-22T10:17:24.573Z,96950
2019-02-22T10:18:34.104Z,96940
2019-02-22T10:19:43.616Z,96941
2019-02-22T10:20:53.151Z,96943
2019-02-22T10:22:02.623Z,96943
2019-02-22T10:23:12.155Z,96942
2019-02-22T10:24:21.665Z,96950
2019-02-22T10:25:31.175Z,96955
2019-02-22T10:26:40.692Z,96967
2019-02-22T10:27:50.198Z,96976
2019-02-22T10:28:59.734Z,96977
2019-02-22T10:30:09.241Z,96980
2019-02-22T10:31:18.758Z,96989
2019-02-22T10:32:28.258Z,96988
2019-02-22T10:33:37.807Z,96996
2019-02-22T10:34:47.330Z,96995
2019-02-22T10:35:56.842Z,96996
2019-02-22T10:37:06.354Z,97001
2019-02-22T10:38:15.905Z,97004
2019-02-22T10:39:25.417Z,97005
2019-02-22T10:40:34.932Z,96999
2019-02-22T10:41:44.433Z,97007
2019-02-22T10:42:53.937Z,97005
2019-02-22T10:44:03.462Z,96999
2019-02-22T10:45:13.977Z,96999
2019-02-22T10:46:23.459Z,97003
2019-02-22T10:47:32.971Z,97005
2019-02-22T10:48:42.498Z,97006
2019-02-22T10:49:52.009Z,97007
2019-02-22T10:51:01.514Z,97007
2019-02-22T10:52:11.037Z,97007
2019-02-22T10:53:20.568Z,97005
2019-02-22T10:54:30.091Z,97005
2019-02-22T10:55:39.610Z,97006
2019-02-22T10:56:49.105Z,97008
2019-02-22T10:57:58.674Z,97002
2019-02-22T10:59:08.193Z,97002
2019-02-22T11:00:17.704Z,96995
2019-02-22T11:01:27.217Z,96996
2019-02-22T11:02:36.790Z,97003
2019-02-22T11:03:46.333Z,97001
2019-02-22T11:04:55.852Z,96998
2019-02-22T11:06:05.360Z,97001
2019-02-22T11:07:14.884Z,96998
2019-02-22T11:08:24.378Z,97001
2019-02-22T11:09:33.942Z,97001
2019-02-22T11:10:43.475Z,97005
2019-02-22T11:11:52.997Z,97007
2019-02-22T11:13:02.511Z,97007
2019-02-22T11:14:12.042Z,96997
2019-02-22T11:15:22.572Z,97003
2019-02-22T11:16:32.100Z,97003
2019-02-22T11:17:41.622Z,97004
2019-02-22T11:18:51.164Z,97007
2019-02-22T11:20:00.679Z,97004
2019-02-22T11:21:10.234Z,97008
2019-02-22T11:22:19.735Z,97011
2019-02-22T11:23:29.249Z,97013
2019-02-22T11:24:38.773Z,97012
2019-02-22T11:25:48.282Z,97014
2019-02-22T11:26:57.797Z,97020
2019-02-22T11:28:07.315Z,97017
2019-02-22T11:29:16.836Z,97021
2019-02-22T11:30:26.343Z,97016
2019-02-22T11:31:35.878Z,97017
2019-02-22T11:32:45.406Z,97015
2019-02-22T11:33:54.971Z,97016
2019-02-22T11:35:04.485Z,97012
2019-02-22T11:36:12.994Z,97017
2019-02-22T11:37:22.508Z,97016
2019-02-22T11:38:32.014Z,97019
2019-02-22T11:39:41.636Z,97021
2019-02-22T11:40:51.056Z,97017
2019-02-22T11:42:00.632Z,97018
2019-02-22T11:43:10.159Z,97020
2019-02-22T11:44:19.696Z,97016
2019-02-22T11:45:29.210Z,97017
2019-02-22T11:46:38.728Z,97011
2019-02-22T11:47:48.228Z,97017
2019-02-22T11:48:57.741Z,97011
2019-02-22T11:50:08.247Z,97013
2019-02-22T11:51:18.770Z,97011
2019-02-22T11:52:28.547Z,97009
2019-02-22T11:53:38.057Z,97015
2019-02-22T11:54:47.603Z,97014
2019-02-22T11:55:57.149Z,97016
2019-02-22T11:57:06.673Z,97010
2019-02-22T11:58:16.240Z,97009
2019-02-22T11:59:25.768Z,97009
2019-02-22T12:00:35.319Z,97010
2019-02-22T12:01:44.833Z,97014
2019-02-22T12:02:54.338Z,97012
2019-02-22T12:04:04.860Z,97014
2019-02-22T12:05:14.375Z,97020
2019-02-22T12:06:23.895Z,97018
2019-02-22T12:07:33.406Z,97016
2019-02-22T12:08:42.914Z,97017
2019-02-22T12:09:52.454Z,97018
2019-02-22T12:11:01.974Z,97021
2019-02-22T12:12:11.487Z,97021
2019-02-22T12:13:21.022Z,97021
2019-02-22T12:14:30.551Z,97019
2019-02-22T12:15:40.058Z,97025
2019-02-22T12:16:49.598Z,97022
2019-02-22T12:17:59.122Z,97024
2019-02-22T12:19:08.644Z,97023
2019-02-22T12:20:18.159Z,97022
2019-02-22T12:21:27.691Z,97016
2019-02-22T12:22:37.210Z,97024
2019-02-22T12:23:46.729Z,97026
2019-02-22T12:24:56.226Z,97019
2019-02-22T12:26:05.780Z,97027
2019-02-22T12:27:15.308Z,97029
2019-02-22T12:28:24.828Z,97026
2019-02-22T12:29:34.347Z,97028
2019-02-22T12:30:43.856Z,97025
2019-02-22T12:31:53.362Z,97024
2019-02-22T12:33:02.899Z,97025
2019-02-22T12:34:12.401Z,97025
2019-02-22T12:35:21.946Z,97030
2019-02-22T12:36:31.468Z,97025
2019-02-22T12:37:40.984Z,97027
2019-02-22T12:38:50.576Z,97025
2019-02-22T12:40:00.107Z,97022
2019-02-22T12:41:09.609Z,97030
2019-02-22T12:42:19.137Z,97025
2019-02-22T12:43:28.660Z,97029
2019-02-22T12:44:38.176Z,97026
2019-02-22T12:45:47.690Z,97029
2019-02-22T12:46:57.219Z,97028
2019-02-22T12:48:06.736Z,97027
2019-02-22T12:49:16.299Z,97027
2019-02-22T12:50:25.815Z,97026
2019-02-22T12:51:35.329Z,97030
2019-02-22T12:52:44.843Z,97027
2019-02-22T12:53:54.366Z,97025
2019-02-22T12:55:03.872Z,97031
2019-02-22T12:56:13.382Z,97030
2019-02-22T12:57:23.890Z,97029
2019-02-22T12:58:33.417Z,97032
2019-02-22T12:59:42.916Z,97032
2019-02-22T13:00:52.413Z,97033
2019-02-22T13:02:01.923Z,97033
2019-02-22T13:03:11.435Z,97038
2019-02-22T13:04:20.955Z,97033
2019-02-22T13:05:30.471Z,97031
2019-02-22T13:06:39.991Z,97029
2019-02-22T13:07:49.537Z,97031
2019-02-22T13:08:59.054Z,97027
2019-02-22T13:10:08.584Z,97037
2019-02-22T13:11:18.117Z,97031
2019-02-22T13:12:27.651Z,97034
2019-02-22T13:13:37.210Z,97035
2019-02-22T13:14:47.053Z,97042
2019-02-22T13:15:56.226Z,97036
2019-02-22T13:17:05.736Z,97039
2019-02-22T13:18:15.251Z,97033
2019-02-22T13:19:24.790Z,97039
2019-02-22T13:20:34.299Z,97043
2019-02-22T13:21:43.813Z,97046
2019-02-22T13:22:53.319Z,97042
2019-02-22T13:24:02.853Z,97036
2019-02-22T13:25:12.359Z,97044
2019-02-22T13:26:21.865Z,97045
2019-02-22T13:27:31.372Z,97045
2019-02-22T13:28:40.903Z,97044
2019-02-22T13:29:50.409Z,97047
2019-02-22T13:30:59.921Z,97049
2019-02-22T13:32:09.427Z,97044
2019-02-22T13:33:18.989Z,97047
2019-02-22T13:34:28.513Z,97058
2019-02-22T13:35:38.019Z,97052
2019-02-22T13:36:47.546Z,97052
2019-02-22T13:37:57.053Z,97049
2019-02-22T13:39:06.580Z,97052
2019-02-22T13:40:16.085Z,97049
2019-02-22T13:41:25.594Z,97049
2019-02-22T13:42:35.102Z,97049
2019-02-22T13:43:44.630Z,97051
2019-02-22T13:44:54.140Z,97050
2019-02-22T13:46:03.648Z,97054
2019-02-22T13:47:13.198Z,97054
2019-02-22T13:48:22.707Z,97055
2019-02-22T13:49:32.233Z,97055
2019-02-22T13:50:41.736Z,97059
2019-02-22T13:51:51.244Z,97060
2019-02-22T13:53:00.816Z,97054
2019-02-22T13:54:10.355Z,97057
2019-02-22T13:55:19.884Z,97061
2019-02-22T13:56:30.051Z,97058
2019-02-22T13:57:38.898Z,97058
2019-02-22T13:58:48.420Z,97053
2019-02-22T13:59:57.958Z,97058
2019-02-22T14:01:07.464Z,97056
2019-02-22T14:02:16.965Z,97060
2019-02-22T14:03:26.481Z,97056
2019-02-22T14:04:36.019Z,97061
2019-02-22T14:05:45.544Z,97060
2019-02-22T14:06:55.051Z,97067
2019-02-22T14:08:04.564Z,97063
2019-02-22T14:09:14.115Z,97067
2019-02-22T14:10:23.770Z,97065
2019-02-22T14:11:33.709Z,97059
2019-02-22T14:12:43.239Z,97058
2019-02-22T14:13:52.817Z,97060
2019-02-22T14:15:02.330Z,97062
2019-02-22T14:16:11.853Z,97063
2019-02-22T14:17:21.371Z,97066
2019-02-22T14:18:30.894Z,97065
2019-02-22T14:19:40.425Z,97063
2019-02-22T14:20:49.955Z,97070
2019-02-22T14:21:59.484Z,97071
2019-02-22T14:23:09.004Z,97071
2019-02-22T14:24:18.550Z,97077
2019-02-22T14:25:28.080Z,97071
2019-02-22T14:26:37.604Z,97069
2019-02-22T14:27:47.112Z,97070
2019-02-22T14:28:56.654Z,97072
2019-02-22T14:30:06.189Z,97073
2019-02-22T14:31:15.704Z,97072
2019-02-22T14:32:25.228Z,97067
2019-02-22T14:33:34.754Z,97061
2019-02-22T14:34:44.311Z,97068
2019-02-22T14:35:53.828Z,97070
2019-02-22T14:37:03.348Z,97070
2019-02-22T14:38:12.909Z,97068
2019-02-22T14:39:22.467Z,97076
2019-02-22T14:40:31.981Z,97077
2019-02-22T14:41:41.502Z,97073
2019-02-22T14:42:51.016Z,97078
2019-02-22T14:44:00.644Z,97078
2019-02-22T14:45:10.185Z,97071
2019-02-22T14:46:25.728Z,97081
2019-02-22T14:47:29.223Z,97073
2019-02-22T14:48:38.759Z,97080
2019-02-22T14:49:48.306Z,97078
2019-02-22T14:50:57.833Z,97070
2019-02-22T14:52:07.349Z,97074
2019-02-22T14:53:19.728Z,97067
2019-02-22T14:54:26.431Z,97070
2019-02-22T14:55:35.961Z,97077
2019-02-22T14:56:45.475Z,97077
2019-02-22T14:57:55.032Z,97085